NCAR-RAP Real-Time Weather Data

Output produced by METARs form (20 February 2019  17:30 UTC)
found at http://weather.rap.ucar.edu/surface/
 
KGUY 201653Z AUTO VRB03KT 10SM CLR 02/M08 A2980 RMK AO2 SLP100 T00221083
KGUY 201553Z AUTO 30008KT 10SM CLR M01/M08 A2979 RMK AO2 SLP100 T10061078
KGUY 201453Z AUTO 26008KT 10SM CLR M04/M09 A2977 RMK AO2 PRESRR SLP098 T10391094 53020
KGUY 201353Z AUTO 24008KT 10SM CLR M07/M11 A2974 RMK AO2 SLP091 T10671111
KGUY 201253Z AUTO 27009KT 10SM CLR M06/M11 A2972 RMK AO2 SLP083 T10611106
KGUY 201153Z AUTO 27008KT 10SM CLR M06/M11 A2971 RMK AO2 SLP079 7//// T10611106 11039 21072 53003
KGUY 201053Z AUTO 26011KT 10SM CLR M06/M10 A2969 RMK AO2 SLP073 T10611100
KGUY 200953Z AUTO 22008KT 7SM CLR M07/M09 A2969 RMK AO2 SLP074 T10671094
KGUY 200943Z AUTO 23010KT 6SM HZ SCT005 M06/M09 A2968 RMK AO2 T10611094
KGUY 200853Z AUTO 22012KT 4SM HZ OVC003 M04/M08 A2970 RMK AO2 SLP075 T10441078 56027
KGUY 200842Z AUTO 22011KT 4SM HZ BKN003 OVC034 M04/M07 A2970 RMK AO2 T10441072
KGUY 200831Z AUTO 21011KT 4SM HZ BKN005 OVC034 M04/M08 A2970 RMK AO2 T10441078
KGUY 200753Z AUTO 21007KT 6SM HZ FEW006 OVC038 M04/M07 A2973 RMK AO2 SLP084 T10441072
KGUY 200730Z AUTO 20006KT 6SM HZ SCT006 OVC038 M04/M07 A2973 RMK AO2 T10391067
KGUY 200653Z AUTO 19006KT 6SM HZ OVC038 M04/M07 A2975 RMK AO2 SLP092 T10391067
KGUY 200636Z AUTO 18008KT 6SM HZ SCT007 OVC039 M04/M07 A2975 RMK AO2 T10391072
KGUY 200553Z AUTO 17007KT 7SM OVC007 M04/M07 A2978 RMK AO2 SLP104 T10391072 11033 21050 410331072 58016
KGUY 200540Z AUTO 18008KT 7SM BKN007 OVC016 M04/M08 A2980 RMK AO2 T10441078
KGUY 200526Z AUTO 17005KT 7SM FEW009 BKN017 M05/M08 A2980 RMK AO2 T10501083
KGUY 200453Z AUTO 16006KT 8SM FEW040 M05/M08 A2981 RMK AO2 SLP116 T10501078
KGUY 200407Z AUTO 17007KT 9SM SCT026 OVC039 M03/M07 A2981 RMK AO2 T10331067
KGUY 200353Z AUTO 17007KT 9SM SCT021 BKN027 OVC039 M03/M07 A2982 RMK AO2 SLP118 T10331072
KGUY 200305Z AUTO 17006KT 10SM OVC016 M03/M07 A2983 RMK AO2 T10331067
KGUY 200253Z AUTO 18006KT 10SM OVC014 M03/M07 A2984 RMK AO2 SLP125 T10331067 55008
KGUY 200237Z AUTO 19007KT 9SM OVC011 M03/M07 A2984 RMK AO2 T10331067
KGUY 200212Z AUTO 18005KT 10SM OVC009 M04/M07 A2984 RMK AO2 T10391067
KGUY 200153Z AUTO 15006KT 10SM OVC010 M04/M07 A2983 RMK AO2 CIG 008V013 SLP122 T10391067
KGUY 200053Z AUTO 15007KT 10SM OVC010 M04/M07 A2985 RMK AO2 CIG 007V014 SLP126 T10391072
KGUY 200030Z AUTO 15010KT 10SM OVC011 M04/M07 A2985 RMK AO2 CIG 007V013 T10391072
KGUY 192353Z AUTO 16008KT 8SM OVC009 M04/M07 A2986 RMK AO2 CIG 006V012 SLP133 60000 T10391067 11039 21044 56015
KGUY 192349Z AUTO 16008KT 8SM OVC009 M04/M07 A2986 RMK AO2 CIG 006V012
KGUY 192326Z AUTO 16006KT 7SM BKN010 OVC013 M04/M07 A2987 RMK AO2 CIG 006V012 T10391072
KGUY 192253Z AUTO 14006KT 3SM HZ OVC007 M04/M07 A2988 RMK AO2 UPB2156E29 CIG 005V010 SLP137 P0000 T10391072
KGUY 192153Z AUTO 13006KT 5SM HZ OVC008 M04/M08 A2991 RMK AO2 CIG 006V013 SLP147 T10441078
KGUY 192112Z AUTO 11007KT 4SM HZ OVC009 M04/M08 A2993 RMK AO2 CIG 006V012 T10441078
KGUY 192053Z AUTO 11006KT 4SM HZ OVC011 M04/M08 A2994 RMK AO2 UPB24E35 CIG 008V015 SLP154 P0000 60000 T10441078 56035